L'Atalante — FNCM — position and weather

sailwx.info

Track history (hours):
 
Tides and Currents Weather Stations Pressure Air Temp Water Temp Dewpoint Dewpoint Depression Visibility Wind Speed Wind Dir Waves Ship Positions

Oceanographic research ship L'Atalante (France)

Detailed information on ship capabilities available from University of Delaware's Ocean Information Center and ARCUS's ALIAS (Arctic Logistics Information and Support) project.

Last reported at 2018-May-26 18:14 UTC. Time now 2018-May-28 01:27 UTC.
Position N 42°37' E 004°32'.

Length 85 m; beam 16 m.

Type: Other ship. MMSI: 227222000.

Date/timePositionNaut miles runAvg speedWind from/ knotsBaromVisibWave heightAir tempDewpointWater temp
2018-May-26 18:14N 42°37' E 004°32'6 4.0
2018-May-26 16:43N 42°42' E 004°28'2 8.4
2018-May-26 16:28N 42°44' E 004°27'70 7.3
2018-May-26 06:59N 43°05' E 005°57'3 6.7
2018-May-26 06:29N 43°06' E 005°53'0 0.0
2018-May-26 05:29N 43°06' E 005°53'0 0.0
2018-May-26 04:59N 43°06' E 005°53'0 0.0
2018-May-26 04:29N 43°06' E 005°53'0 0.0
2018-May-26 03:59N 43°06' E 005°53'0 0.0
2018-May-26 03:29N 43°06' E 005°53'0 0.0
2018-May-26 02:56N 43°06' E 005°53'0 0.0
2018-May-26 02:29N 43°06' E 005°53'0 0.0
2018-May-26 01:59N 43°06' E 005°53'0 0.0
2018-May-26 01:29N 43°06' E 005°53'0 0.0
2018-May-26 00:59N 43°06' E 005°53'0 0.0
2018-May-26 00:29N 43°06' E 005°53'0 0.0
2018-May-25 23:59N 43°06' E 005°53'0 0.0
2018-May-25 23:29N 43°06' E 005°53'0 0.0
2018-May-25 22:59N 43°06' E 005°53'0 0.0
2018-May-25 22:29N 43°06' E 005°53'0 0.0
2018-May-25 21:59N 43°06' E 005°53'0 0.0
2018-May-25 21:29N 43°06' E 005°53'0 0.0
2018-May-25 20:59N 43°06' E 005°53'0 0.0
2018-May-25 20:29N 43°06' E 005°53'0 0.0
2018-May-25 19:59N 43°06' E 005°53'0 0.0
2018-May-25 19:29N 43°06' E 005°53'0 0.0
2018-May-25 18:59N 43°06' E 005°53'0 0.0
2018-May-25 18:29N 43°06' E 005°53'0 0.0
2018-May-25 17:59N 43°06' E 005°53'0 0.0
2018-May-25 17:29N 43°06' E 005°53'0 0.0
2018-May-25 16:59N 43°06' E 005°53'0 0.0
2018-May-25 16:29N 43°06' E 005°53'0 0.0
2018-May-25 15:59N 43°06' E 005°53'0 0.0
2018-May-25 15:29N 43°06' E 005°53'0 0.0
2018-May-25 14:59N 43°06' E 005°53'0 0.0
2018-May-25 14:29N 43°06' E 005°53'0 0.0
2018-May-25 13:59N 43°06' E 005°53'0 0.0
2018-May-25 13:29N 43°06' E 005°53'0 0.0
2018-May-25 12:59N 43°06' E 005°53'0 0.0
2018-May-25 12:29N 43°06' E 005°53'0 0.0
2018-May-25 11:59N 43°06' E 005°53'0 0.0
2018-May-25 11:29N 43°06' E 005°53'0 0.0
2018-May-25 10:59N 43°06' E 005°53'0 0.0
2018-May-25 10:29N 43°06' E 005°53'0 0.0
2018-May-25 09:59N 43°06' E 005°53'0 0.0
2018-May-25 09:29N 43°06' E 005°53'0 0.0
2018-May-25 08:59N 43°06' E 005°53'0 0.0
2018-May-25 08:29N 43°06' E 005°53'0 0.0
2018-May-25 07:59N 43°06' E 005°53'0 0.0
2018-May-25 07:29N 43°06' E 005°53'0 0.0
2018-May-25 06:59N 43°06' E 005°53'0 0.0
2018-May-25 06:29N 43°06' E 005°53'0 0.0
2018-May-25 05:59N 43°06' E 005°53'0 0.0
2018-May-25 05:29N 43°06' E 005°53'0 0.0
2018-May-25 04:59N 43°06' E 005°53'0 0.0
2018-May-25 04:29N 43°06' E 005°53'0 0.0
2018-May-25 03:59N 43°06' E 005°53'0 0.0
2018-May-25 03:29N 43°06' E 005°53'0 0.0
2018-May-25 02:59N 43°06' E 005°53'0 0.0
2018-May-25 02:29N 43°06' E 005°53'0 0.0
2018-May-25 01:59N 43°06' E 005°53'0 0.0
2018-May-25 01:29N 43°06' E 005°53'0 0.0
2018-May-25 00:59N 43°06' E 005°53'0 0.0
2018-May-25 00:29N 43°06' E 005°53'0 0.0
2018-May-24 23:59N 43°06' E 005°53'0 0.0
2018-May-24 23:29N 43°06' E 005°53'0 0.0
2018-May-24 22:59N 43°06' E 005°53'0 0.0
2018-May-24 22:29N 43°06' E 005°53'0 0.0
2018-May-24 21:59N 43°06' E 005°53'0 0.0
2018-May-24 21:29N 43°06' E 005°53'0 0.0
2018-May-24 20:59N 43°06' E 005°53'0 0.0
2018-May-24 20:29N 43°06' E 005°53'0 0.0
2018-May-24 19:59N 43°06' E 005°53'0 0.0
2018-May-24 19:29N 43°06' E 005°53'0 0.0
2018-May-24 18:59N 43°06' E 005°53'0 0.0
2018-May-24 18:28N 43°06' E 005°53'0 0.0
2018-May-24 17:58N 43°06' E 005°53'0 0.0
2018-May-24 17:28N 43°06' E 005°53'0 0.2
2018-May-24 17:00N 43°06' E 005°53'3 5.9
2018-May-24 16:30N 43°05' E 005°57'7 7.2
2018-May-24 15:29N 42°58' E 006°01'3 7.1
2018-May-24 15:00N 42°55' E 005°59'81 4.3
2018-May-23 19:57N 41°54' E 004°47'  
2018-May-19 16:35N 42°56' E 007°46'111.8
2018-May-19 16:29N 42°57' E 007°47'2 3.0
2018-May-19 15:47N 42°58' E 007°49'0 0.1
2018-May-19 14:41N 42°58' E 007°49'0 0.2
2018-May-19 14:05N 42°58' E 007°49'0 0.2
2018-May-19 13:55N 42°58' E 007°49'24 6.5
2018-May-19 10:17N 43°12' E 008°16'511.8
2018-May-19 09:54N 43°14' E 008°21'611.5
2018-May-19 09:24N 43°18' E 008°27'1 1.6
2018-May-19 09:00N 43°18' E 008°28'0 0.1
2018-May-19 08:30N 43°18' E 008°28'0 0.1
2018-May-19 08:00N 43°18' E 008°28'0 0.0
2018-May-19 07:30N 43°18' E 008°28'0 0.0
2018-May-19 07:00N 43°18' E 008°28'0 0.4
2018-May-19 06:30N 43°18' E 008°28'510.1
2018-May-19 06:00N 43°21' E 008°34'612.2
2018-May-19 05:30N 43°24' E 008°41'5 9.2
2018-May-19 05:00N 43°27' E 008°46'0 0.1
2018-May-19 04:30N 43°27' E 008°46'0 0.1
2018-May-19 04:00N 43°27' E 008°46'0 0.1
2018-May-19 03:30N 43°27' E 008°46'0 0.0
2018-May-19 03:00N 43°27' E 008°46'1 2.3
2018-May-19 02:30N 43°28' E 008°47'611.6
2018-May-19 02:00N 43°31' E 008°54'510.5
2018-May-19 01:30N 43°35' E 008°59'1 1.7
2018-May-19 01:00N 43°35' E 008°60'0 0.1
2018-May-19 00:30N 43°35' E 008°60'0 0.1
2018-May-19 00:00N 43°35' E 008°60'0 0.2
2018-May-18 23:30N 43°35' E 008°60'1 2.5
2018-May-18 23:00N 43°36' E 009°02'5 9.5
2018-May-18 22:30N 43°38' E 009°07'2 4.3
2018-May-18 22:00N 43°39' E 009°10'0 0.1
2018-May-18 21:30N 43°39' E 009°10'0 0.1
2018-May-18 21:00N 43°39' E 009°10'0 0.2
2018-May-18 20:30N 43°39' E 009°10'5 9.5
2018-May-18 20:00N 43°41' E 009°16'2 3.5
2018-May-18 19:30N 43°42' E 009°18'0 0.1
2018-May-18 19:00N 43°42' E 009°18'0 0.1
2018-May-18 18:30N 43°42' E 009°18'2 4.4
2018-May-18 18:00N 43°43' E 009°21'3 6.0
2018-May-18 17:30N 43°45' E 009°24'0 0.1
2018-May-18 17:00N 43°45' E 009°24'1 3.0
2018-May-18 16:30N 43°46' E 009°26'510.7
2018-May-18 16:00N 43°49' E 009°31'1 1.4
2018-May-18 15:30N 43°50' E 009°32'0 0.1
2018-May-18 15:00N 43°50' E 009°32'0 0.2
2018-May-18 14:30N 43°50' E 009°32'0 0.2
2018-May-18 14:00N 43°50' E 009°32'3 5.5
2018-May-18 13:30N 43°47' E 009°32'612.0
2018-May-18 13:00N 43°41' E 009°31'612.1
2018-May-18 12:30N 43°35' E 009°30'612.0
2018-May-18 12:00N 43°30' E 009°28'611.8
2018-May-18 11:30N 43°24' E 009°25'611.6
2018-May-18 11:00N 43°19' E 009°22'611.2
2018-May-18 10:30N 43°13' E 009°21'612.4
2018-May-18 10:00N 43°07' E 009°18'611.9
2018-May-18 09:30N 43°02' E 009°16'2 3.2
2018-May-18 08:59N 42°60' E 009°15'0 0.1
2018-May-18 08:30N 43°00' E 009°15'0 0.1
2018-May-18 08:00N 42°60' E 009°15'5 7.2
2018-May-18 07:18N 43°04' E 009°11'0 0.0
2018-May-18 07:00N 43°04' E 009°11'0 0.1
2018-May-18 06:30N 43°04' E 009°11'20 4.8
2018-May-18 02:27N 43°19' E 008°55'1 1.1
2018-May-18 02:00N 43°20' E 008°54'0 0.4
2018-May-18 01:30N 43°20' E 008°54'0 0.3
2018-May-18 01:00N 43°19' E 008°54'0 0.4
2018-May-18 00:29N 43°19' E 008°54'0 0.5
2018-May-18 00:00N 43°19' E 008°54'2 3.3
2018-May-17 23:30N 43°19' E 008°52'611.6
2018-May-17 23:00N 43°20' E 008°44'611.4
2018-May-17 22:30N 43°21' E 008°36'32 7.7
2018-May-17 18:19N 43°25' E 007°52'0 0.0
2018-May-17 17:43N 43°25' E 007°52'0 0.0
2018-May-17 17:08N 43°25' E 007°52'0 0.1
2018-May-17 16:53N 43°25' E 007°52'33 3.5
2018-May-17 07:28N 43°53' E 008°15'5 2.6
2018-May-17 05:26N 43°50' E 008°21'0 0.0
2018-May-17 04:59N 43°50' E 008°21'0 0.4
2018-May-17 04:27N 43°50' E 008°21'611.4
2018-May-17 03:57N 43°45' E 008°26'4 6.8
2018-May-17 03:23N 43°42' E 008°29'0 0.0
2018-May-17 02:47N 43°42' E 008°29'0 0.1
2018-May-17 02:28N 43°42' E 008°29'0 0.2
2018-May-17 02:00N 43°42' E 008°29'0 0.3
2018-May-17 01:30N 43°42' E 008°29'3 5.6
2018-May-17 01:00N 43°40' E 008°32'511.1
2018-May-17 00:30N 43°36' E 008°37'1 2.8
2018-May-16 23:59N 43°35' E 008°39'0 0.2
2018-May-16 23:30N 43°35' E 008°38'0 0.3
2018-May-16 22:59N 43°35' E 008°38'0 0.3
2018-May-16 22:30N 43°35' E 008°38'0 0.2
2018-May-16 21:56N 43°35' E 008°38'0 0.3
2018-May-16 21:31N 43°35' E 008°38'  
Track history (hours):
 
Tides and Currents Weather Stations Pressure Air Temp Water Temp Dewpoint Dewpoint Depression Visibility Wind Speed Wind Dir Waves Ship Positions

Oceanographic research ship L'Atalante (France)

Detailed information on ship capabilities available from University of Delaware's Ocean Information Center and ARCUS's ALIAS (Arctic Logistics Information and Support) project.

Last reported at 2018-May-26 18:14 UTC. Time now 2018-May-28 01:27 UTC.
Position N 42°37' E 004°32'.

Length 85 m; beam 16 m.

Type: Other ship. MMSI: 227222000.

Date/timePositionNaut miles runAvg speedWind from/ knotsBaromVisibWave heightAir tempDewpointWater temp
2018-May-26 18:14N 42°37' E 004°32'6 4.0
2018-May-26 16:43N 42°42' E 004°28'2 8.4
2018-May-26 16:28N 42°44' E 004°27'70 7.3
2018-May-26 06:59N 43°05' E 005°57'3 6.7
2018-May-26 06:29N 43°06' E 005°53'0 0.0
2018-May-26 05:29N 43°06' E 005°53'0 0.0
2018-May-26 04:59N 43°06' E 005°53'0 0.0
2018-May-26 04:29N 43°06' E 005°53'0 0.0
2018-May-26 03:59N 43°06' E 005°53'0 0.0
2018-May-26 03:29N 43°06' E 005°53'0 0.0
2018-May-26 02:56N 43°06' E 005°53'0 0.0
2018-May-26 02:29N 43°06' E 005°53'0 0.0
2018-May-26 01:59N 43°06' E 005°53'0 0.0
2018-May-26 01:29N 43°06' E 005°53'0 0.0
2018-May-26 00:59N 43°06' E 005°53'0 0.0
2018-May-26 00:29N 43°06' E 005°53'0 0.0
2018-May-25 23:59N 43°06' E 005°53'0 0.0
2018-May-25 23:29N 43°06' E 005°53'0 0.0
2018-May-25 22:59N 43°06' E 005°53'0 0.0
2018-May-25 22:29N 43°06' E 005°53'0 0.0
2018-May-25 21:59N 43°06' E 005°53'0 0.0
2018-May-25 21:29N 43°06' E 005°53'0 0.0
2018-May-25 20:59N 43°06' E 005°53'0 0.0
2018-May-25 20:29N 43°06' E 005°53'0 0.0
2018-May-25 19:59N 43°06' E 005°53'0 0.0
2018-May-25 19:29N 43°06' E 005°53'0 0.0
2018-May-25 18:59N 43°06' E 005°53'0 0.0
2018-May-25 18:29N 43°06' E 005°53'0 0.0
2018-May-25 17:59N 43°06' E 005°53'0 0.0
2018-May-25 17:29N 43°06' E 005°53'0 0.0
2018-May-25 16:59N 43°06' E 005°53'0 0.0
2018-May-25 16:29N 43°06' E 005°53'0 0.0
2018-May-25 15:59N 43°06' E 005°53'0 0.0
2018-May-25 15:29N 43°06' E 005°53'0 0.0
2018-May-25 14:59N 43°06' E 005°53'0 0.0
2018-May-25 14:29N 43°06' E 005°53'0 0.0
2018-May-25 13:59N 43°06' E 005°53'0 0.0
2018-May-25 13:29N 43°06' E 005°53'0 0.0
2018-May-25 12:59N 43°06' E 005°53'0 0.0
2018-May-25 12:29N 43°06' E 005°53'0 0.0
2018-May-25 11:59N 43°06' E 005°53'0 0.0
2018-May-25 11:29N 43°06' E 005°53'0 0.0
2018-May-25 10:59N 43°06' E 005°53'0 0.0
2018-May-25 10:29N 43°06' E 005°53'0 0.0
2018-May-25 09:59N 43°06' E 005°53'0 0.0
2018-May-25 09:29N 43°06' E 005°53'0 0.0
2018-May-25 08:59N 43°06' E 005°53'0 0.0
2018-May-25 08:29N 43°06' E 005°53'0 0.0
2018-May-25 07:59N 43°06' E 005°53'0 0.0
2018-May-25 07:29N 43°06' E 005°53'0 0.0
2018-May-25 06:59N 43°06' E 005°53'0 0.0
2018-May-25 06:29N 43°06' E 005°53'0 0.0
2018-May-25 05:59N 43°06' E 005°53'0 0.0
2018-May-25 05:29N 43°06' E 005°53'0 0.0
2018-May-25 04:59N 43°06' E 005°53'0 0.0
2018-May-25 04:29N 43°06' E 005°53'0 0.0
2018-May-25 03:59N 43°06' E 005°53'0 0.0
2018-May-25 03:29N 43°06' E 005°53'0 0.0
2018-May-25 02:59N 43°06' E 005°53'0 0.0
2018-May-25 02:29N 43°06' E 005°53'0 0.0
2018-May-25 01:59N 43°06' E 005°53'0 0.0
2018-May-25 01:29N 43°06' E 005°53'0 0.0
2018-May-25 00:59N 43°06' E 005°53'0 0.0
2018-May-25 00:29N 43°06' E 005°53'0 0.0
2018-May-24 23:59N 43°06' E 005°53'0 0.0
2018-May-24 23:29N 43°06' E 005°53'0 0.0
2018-May-24 22:59N 43°06' E 005°53'0 0.0
2018-May-24 22:29N 43°06' E 005°53'0 0.0
2018-May-24 21:59N 43°06' E 005°53'0 0.0
2018-May-24 21:29N 43°06' E 005°53'0 0.0
2018-May-24 20:59N 43°06' E 005°53'0 0.0
2018-May-24 20:29N 43°06' E 005°53'0 0.0
2018-May-24 19:59N 43°06' E 005°53'0 0.0
2018-May-24 19:29N 43°06' E 005°53'0 0.0
2018-May-24 18:59N 43°06' E 005°53'0 0.0
2018-May-24 18:28N 43°06' E 005°53'0 0.0
2018-May-24 17:58N 43°06' E 005°53'0 0.0
2018-May-24 17:28N 43°06' E 005°53'0 0.2
2018-May-24 17:00N 43°06' E 005°53'3 5.9
2018-May-24 16:30N 43°05' E 005°57'7 7.2
2018-May-24 15:29N 42°58' E 006°01'3 7.1
2018-May-24 15:00N 42°55' E 005°59'81 4.3
2018-May-23 19:57N 41°54' E 004°47'  
2018-May-19 16:35N 42°56' E 007°46'111.8
2018-May-19 16:29N 42°57' E 007°47'2 3.0
2018-May-19 15:47N 42°58' E 007°49'0 0.1
2018-May-19 14:41N 42°58' E 007°49'0 0.2
2018-May-19 14:05N 42°58' E 007°49'0 0.2
2018-May-19 13:55N 42°58' E 007°49'24 6.5
2018-May-19 10:17N 43°12' E 008°16'511.8
2018-May-19 09:54N 43°14' E 008°21'611.5
2018-May-19 09:24N 43°18' E 008°27'1 1.6
2018-May-19 09:00N 43°18' E 008°28'0 0.1
2018-May-19 08:30N 43°18' E 008°28'0 0.1
2018-May-19 08:00N 43°18' E 008°28'0 0.0
2018-May-19 07:30N 43°18' E 008°28'0 0.0
2018-May-19 07:00N 43°18' E 008°28'0 0.4
2018-May-19 06:30N 43°18' E 008°28'510.1
2018-May-19 06:00N 43°21' E 008°34'612.2
2018-May-19 05:30N 43°24' E 008°41'5 9.2
2018-May-19 05:00N 43°27' E 008°46'0 0.1
2018-May-19 04:30N 43°27' E 008°46'0 0.1
2018-May-19 04:00N 43°27' E 008°46'0 0.1
2018-May-19 03:30N 43°27' E 008°46'0 0.0
2018-May-19 03:00N 43°27' E 008°46'1 2.3
2018-May-19 02:30N 43°28' E 008°47'611.6
2018-May-19 02:00N 43°31' E 008°54'510.5
2018-May-19 01:30N 43°35' E 008°59'1 1.7
2018-May-19 01:00N 43°35' E 008°60'0 0.1
2018-May-19 00:30N 43°35' E 008°60'0 0.1
2018-May-19 00:00N 43°35' E 008°60'0 0.2
2018-May-18 23:30N 43°35' E 008°60'1 2.5
2018-May-18 23:00N 43°36' E 009°02'5 9.5
2018-May-18 22:30N 43°38' E 009°07'2 4.3
2018-May-18 22:00N 43°39' E 009°10'0 0.1
2018-May-18 21:30N 43°39' E 009°10'0 0.1
2018-May-18 21:00N 43°39' E 009°10'0 0.2
2018-May-18 20:30N 43°39' E 009°10'5 9.5
2018-May-18 20:00N 43°41' E 009°16'2 3.5
2018-May-18 19:30N 43°42' E 009°18'0 0.1
2018-May-18 19:00N 43°42' E 009°18'0 0.1
2018-May-18 18:30N 43°42' E 009°18'2 4.4
2018-May-18 18:00N 43°43' E 009°21'3 6.0
2018-May-18 17:30N 43°45' E 009°24'0 0.1
2018-May-18 17:00N 43°45' E 009°24'1 3.0
2018-May-18 16:30N 43°46' E 009°26'510.7
2018-May-18 16:00N 43°49' E 009°31'1 1.4
2018-May-18 15:30N 43°50' E 009°32'0 0.1
2018-May-18 15:00N 43°50' E 009°32'0 0.2
2018-May-18 14:30N 43°50' E 009°32'0 0.2
2018-May-18 14:00N 43°50' E 009°32'3 5.5
2018-May-18 13:30N 43°47' E 009°32'612.0
2018-May-18 13:00N 43°41' E 009°31'612.1
2018-May-18 12:30N 43°35' E 009°30'612.0
2018-May-18 12:00N 43°30' E 009°28'611.8
2018-May-18 11:30N 43°24' E 009°25'611.6
2018-May-18 11:00N 43°19' E 009°22'611.2
2018-May-18 10:30N 43°13' E 009°21'612.4
2018-May-18 10:00N 43°07' E 009°18'611.9
2018-May-18 09:30N 43°02' E 009°16'2 3.2
2018-May-18 08:59N 42°60' E 009°15'0 0.1
2018-May-18 08:30N 43°00' E 009°15'0 0.1
2018-May-18 08:00N 42°60' E 009°15'5 7.2
2018-May-18 07:18N 43°04' E 009°11'0 0.0
2018-May-18 07:00N 43°04' E 009°11'0 0.1
2018-May-18 06:30N 43°04' E 009°11'20 4.8
2018-May-18 02:27N 43°19' E 008°55'1 1.1
2018-May-18 02:00N 43°20' E 008°54'0 0.4
2018-May-18 01:30N 43°20' E 008°54'0 0.3
2018-May-18 01:00N 43°19' E 008°54'0 0.4
2018-May-18 00:29N 43°19' E 008°54'0 0.5
2018-May-18 00:00N 43°19' E 008°54'2 3.3
2018-May-17 23:30N 43°19' E 008°52'611.6
2018-May-17 23:00N 43°20' E 008°44'611.4
2018-May-17 22:30N 43°21' E 008°36'32 7.7
2018-May-17 18:19N 43°25' E 007°52'0 0.0
2018-May-17 17:43N 43°25' E 007°52'0 0.0
2018-May-17 17:08N 43°25' E 007°52'0 0.1
2018-May-17 16:53N 43°25' E 007°52'33 3.5
2018-May-17 07:28N 43°53' E 008°15'5 2.6
2018-May-17 05:26N 43°50' E 008°21'0 0.0
2018-May-17 04:59N 43°50' E 008°21'0 0.4
2018-May-17 04:27N 43°50' E 008°21'611.4
2018-May-17 03:57N 43°45' E 008°26'4 6.8
2018-May-17 03:23N 43°42' E 008°29'0 0.0
2018-May-17 02:47N 43°42' E 008°29'0 0.1
2018-May-17 02:28N 43°42' E 008°29'0 0.2
2018-May-17 02:00N 43°42' E 008°29'0 0.3
2018-May-17 01:30N 43°42' E 008°29'3 5.6
2018-May-17 01:00N 43°40' E 008°32'511.1
2018-May-17 00:30N 43°36' E 008°37'1 2.8
2018-May-16 23:59N 43°35' E 008°39'0 0.2
2018-May-16 23:30N 43°35' E 008°38'0 0.3
2018-May-16 22:59N 43°35' E 008°38'0 0.3
2018-May-16 22:30N 43°35' E 008°38'0 0.2
2018-May-16 21:56N 43°35' E 008°38'0 0.3
2018-May-16 21:31N 43°35' E 008°38'  

Dump ship's entire track history